sensor_id;sensor_type;location;lat;lon;timestamp;P1;durP1;ratioP1;P2;durP2;ratioP2
42282;SDS011;28237;47.954;21.730;2022-09-17T00:00:34;3.00;;;1.95;;
42282;SDS011;28237;47.954;21.730;2022-09-17T00:02:59;3.83;;;2.40;;
42282;SDS011;28237;47.954;21.730;2022-09-17T00:05:24;3.17;;;2.23;;
42282;SDS011;28237;47.954;21.730;2022-09-17T00:07:50;4.23;;;2.67;;
42282;SDS011;28237;47.954;21.730;2022-09-17T00:10:16;3.95;;;2.42;;
42282;SDS011;28237;47.954;21.730;2022-09-17T00:12:41;5.18;;;2.65;;
42282;SDS011;28237;47.954;21.730;2022-09-17T00:15:07;1.95;;;1.75;;
42282;SDS011;28237;47.954;21.730;2022-09-17T00:17:32;3.72;;;2.35;;
42282;SDS011;28237;47.954;21.730;2022-09-17T00:19:57;3.10;;;2.40;;
42282;SDS011;28237;47.954;21.730;2022-09-17T00:22:23;4.47;;;2.00;;
42282;SDS011;28237;47.954;21.730;2022-09-17T00:24:48;3.10;;;2.08;;
42282;SDS011;28237;47.954;21.730;2022-09-17T00:27:13;5.10;;;2.50;;
42282;SDS011;28237;47.954;21.730;2022-09-17T00:29:38;5.55;;;2.42;;
42282;SDS011;28237;47.954;21.730;2022-09-17T00:32:04;2.60;;;1.73;;
42282;SDS011;28237;47.954;21.730;2022-09-17T00:34:29;3.97;;;1.90;;
42282;SDS011;28237;47.954;21.730;2022-09-17T00:36:54;2.67;;;2.23;;
42282;SDS011;28237;47.954;21.730;2022-09-17T00:39:19;2.63;;;2.43;;
42282;SDS011;28237;47.954;21.730;2022-09-17T00:41:45;3.95;;;3.53;;
42282;SDS011;28237;47.954;21.730;2022-09-17T00:46:54;2.40;;;2.20;;
42282;SDS011;28237;47.954;21.730;2022-09-17T00:49:24;3.60;;;2.03;;
42282;SDS011;28237;47.954;21.730;2022-09-17T00:52:14;2.30;;;2.10;;
42282;SDS011;28237;47.954;21.730;2022-09-17T00:54:39;2.97;;;2.20;;
42282;SDS011;28237;47.954;21.730;2022-09-17T00:57:05;4.32;;;1.95;;
42282;SDS011;28237;47.954;21.730;2022-09-17T00:59:30;2.20;;;2.00;;
42282;SDS011;28237;47.954;21.730;2022-09-17T01:01:56;2.58;;;2.35;;
42282;SDS011;28237;47.954;21.730;2022-09-17T01:04:23;2.25;;;2.03;;
42282;SDS011;28237;47.954;21.730;2022-09-17T01:14:47;3.50;;;2.10;;
42282;SDS011;28237;47.954;21.730;2022-09-17T01:17:18;2.10;;;1.63;;
42282;SDS011;28237;47.954;21.730;2022-09-17T01:22:33;3.17;;;2.65;;
42282;SDS011;28237;47.954;21.730;2022-09-17T01:25:19;2.95;;;2.25;;
42282;SDS011;28237;47.954;21.730;2022-09-17T01:28:51;4.10;;;1.80;;
42282;SDS011;28237;47.954;21.730;2022-09-17T01:33:14;6.15;;;1.95;;
42282;SDS011;28237;47.954;21.730;2022-09-17T01:35:48;1.60;;;1.30;;
42282;SDS011;28237;47.954;21.730;2022-09-17T01:40:51;1.67;;;1.58;;
42282;SDS011;28237;47.954;21.730;2022-09-17T01:43:45;2.53;;;2.10;;
42282;SDS011;28237;47.954;21.730;2022-09-17T01:46:21;5.13;;;1.80;;
42282;SDS011;28237;47.954;21.730;2022-09-17T01:48:49;3.90;;;1.98;;
42282;SDS011;28237;47.954;21.730;2022-09-17T01:51:17;2.80;;;1.90;;
42282;SDS011;28237;47.954;21.730;2022-09-17T01:56:40;2.75;;;2.10;;
42282;SDS011;28237;47.954;21.730;2022-09-17T01:59:17;3.15;;;1.55;;
42282;SDS011;28237;47.954;21.730;2022-09-17T02:01:44;2.35;;;2.15;;
42282;SDS011;28237;47.954;21.730;2022-09-17T02:04:13;3.42;;;2.22;;
42282;SDS011;28237;47.954;21.730;2022-09-17T02:06:42;2.70;;;2.50;;
42282;SDS011;28237;47.954;21.730;2022-09-17T02:11:40;2.75;;;2.50;;
42282;SDS011;28237;47.954;21.730;2022-09-17T02:14:18;2.28;;;1.80;;
42282;SDS011;28237;47.954;21.730;2022-09-17T02:16:46;3.03;;;2.17;;
42282;SDS011;28237;47.954;21.730;2022-09-17T02:19:33;2.05;;;1.80;;
42282;SDS011;28237;47.954;21.730;2022-09-17T02:22:14;3.42;;;2.05;;
42282;SDS011;28237;47.954;21.730;2022-09-17T02:27:33;5.20;;;2.50;;
42282;SDS011;28237;47.954;21.730;2022-09-17T02:30:00;3.58;;;2.22;;
42282;SDS011;28237;47.954;21.730;2022-09-17T02:32:26;2.00;;;1.75;;
42282;SDS011;28237;47.954;21.730;2022-09-17T02:34:51;1.92;;;1.75;;
42282;SDS011;28237;47.954;21.730;2022-09-17T02:37:17;2.78;;;1.67;;
42282;SDS011;28237;47.954;21.730;2022-09-17T02:39:42;4.20;;;1.58;;
42282;SDS011;28237;47.954;21.730;2022-09-17T02:42:20;1.53;;;1.43;;
42282;SDS011;28237;47.954;21.730;2022-09-17T02:52:42;2.03;;;1.55;;
42282;SDS011;28237;47.954;21.730;2022-09-17T02:57:52;3.35;;;2.00;;
42282;SDS011;28237;47.954;21.730;2022-09-17T03:00:19;4.45;;;2.13;;
42282;SDS011;28237;47.954;21.730;2022-09-17T03:05:29;2.17;;;1.83;;
42282;SDS011;28237;47.954;21.730;2022-09-17T03:07:55;2.30;;;1.80;;
42282;SDS011;28237;47.954;21.730;2022-09-17T03:10:21;3.53;;;1.95;;
42282;SDS011;28237;47.954;21.730;2022-09-17T03:12:46;3.13;;;2.00;;
42282;SDS011;28237;47.954;21.730;2022-09-17T03:15:12;3.83;;;2.00;;
42282;SDS011;28237;47.954;21.730;2022-09-17T03:17:37;2.73;;;1.70;;
42282;SDS011;28237;47.954;21.730;2022-09-17T03:20:02;3.63;;;1.98;;
42282;SDS011;28237;47.954;21.730;2022-09-17T03:22:28;2.08;;;1.88;;
42282;SDS011;28237;47.954;21.730;2022-09-17T03:24:54;4.37;;;1.87;;
42282;SDS011;28237;47.954;21.730;2022-09-17T03:27:19;3.57;;;2.07;;
42282;SDS011;28237;47.954;21.730;2022-09-17T03:29:44;3.00;;;2.37;;
42282;SDS011;28237;47.954;21.730;2022-09-17T03:32:10;4.90;;;2.13;;
42282;SDS011;28237;47.954;21.730;2022-09-17T03:34:35;2.70;;;1.85;;
42282;SDS011;28237;47.954;21.730;2022-09-17T03:37:00;3.23;;;1.83;;
42282;SDS011;28237;47.954;21.730;2022-09-17T03:39:27;2.60;;;1.88;;
42282;SDS011;28237;47.954;21.730;2022-09-17T03:41:52;2.83;;;1.77;;
42282;SDS011;28237;47.954;21.730;2022-09-17T03:44:17;2.50;;;2.13;;
42282;SDS011;28237;47.954;21.730;2022-09-17T03:46:43;3.97;;;2.90;;
42282;SDS011;28237;47.954;21.730;2022-09-17T03:49:09;3.50;;;2.45;;
42282;SDS011;28237;47.954;21.730;2022-09-17T03:51:34;3.80;;;3.13;;
42282;SDS011;28237;47.954;21.730;2022-09-17T03:53:59;7.53;;;2.40;;
42282;SDS011;28237;47.954;21.730;2022-09-17T03:56:24;2.40;;;2.03;;
42282;SDS011;28237;47.954;21.730;2022-09-17T03:58:50;5.07;;;3.25;;
42282;SDS011;28237;47.954;21.730;2022-09-17T04:01:16;4.22;;;2.80;;
42282;SDS011;28237;47.954;21.730;2022-09-17T04:03:41;4.17;;;2.50;;
42282;SDS011;28237;47.954;21.730;2022-09-17T04:06:06;3.53;;;2.70;;
42282;SDS011;28237;47.954;21.730;2022-09-17T04:08:31;3.97;;;2.47;;
42282;SDS011;28237;47.954;21.730;2022-09-17T04:10:57;2.92;;;2.72;;
42282;SDS011;28237;47.954;21.730;2022-09-17T04:13:23;3.57;;;3.00;;
42282;SDS011;28237;47.954;21.730;2022-09-17T04:15:48;4.07;;;2.70;;
42282;SDS011;28237;47.954;21.730;2022-09-17T04:18:13;6.40;;;2.85;;
42282;SDS011;28237;47.954;21.730;2022-09-17T04:20:39;2.63;;;2.25;;
42282;SDS011;28237;47.954;21.730;2022-09-17T04:23:04;2.50;;;2.20;;
42282;SDS011;28237;47.954;21.730;2022-09-17T04:25:31;3.00;;;2.42;;
42282;SDS011;28237;47.954;21.730;2022-09-17T04:27:56;5.47;;;2.20;;
42282;SDS011;28237;47.954;21.730;2022-09-17T04:30:22;2.97;;;2.03;;
42282;SDS011;28237;47.954;21.730;2022-09-17T04:32:47;3.33;;;2.20;;
42282;SDS011;28237;47.954;21.730;2022-09-17T04:35:12;2.83;;;2.47;;
42282;SDS011;28237;47.954;21.730;2022-09-17T04:37:38;3.13;;;2.60;;
42282;SDS011;28237;47.954;21.730;2022-09-17T04:40:03;5.45;;;2.50;;
42282;SDS011;28237;47.954;21.730;2022-09-17T04:42:29;2.13;;;1.92;;
42282;SDS011;28237;47.954;21.730;2022-09-17T04:44:54;2.78;;;2.17;;
42282;SDS011;28237;47.954;21.730;2022-09-17T04:47:20;6.37;;;2.37;;
42282;SDS011;28237;47.954;21.730;2022-09-17T04:49:45;5.57;;;1.98;;
42282;SDS011;28237;47.954;21.730;2022-09-17T04:52:10;2.73;;;2.30;;
42282;SDS011;28237;47.954;21.730;2022-09-17T04:54:35;3.47;;;2.50;;
42282;SDS011;28237;47.954;21.730;2022-09-17T04:57:01;4.30;;;2.40;;
42282;SDS011;28237;47.954;21.730;2022-09-17T04:59:26;3.40;;;2.40;;
42282;SDS011;28237;47.954;21.730;2022-09-17T05:01:52;5.63;;;2.30;;
42282;SDS011;28237;47.954;21.730;2022-09-17T05:04:17;2.30;;;2.10;;
42282;SDS011;28237;47.954;21.730;2022-09-17T05:06:42;2.47;;;2.27;;
42282;SDS011;28237;47.954;21.730;2022-09-17T05:09:08;3.25;;;2.00;;
42282;SDS011;28237;47.954;21.730;2022-09-17T05:11:33;5.63;;;2.55;;
42282;SDS011;28237;47.954;21.730;2022-09-17T05:13:59;4.15;;;2.13;;
42282;SDS011;28237;47.954;21.730;2022-09-17T05:16:24;2.50;;;1.90;;
42282;SDS011;28237;47.954;21.730;2022-09-17T05:18:50;2.37;;;1.60;;
42282;SDS011;28237;47.954;21.730;2022-09-17T05:21:16;1.95;;;1.58;;
42282;SDS011;28237;47.954;21.730;2022-09-17T05:23:41;5.38;;;2.42;;
42282;SDS011;28237;47.954;21.730;2022-09-17T05:26:06;3.07;;;2.27;;
42282;SDS011;28237;47.954;21.730;2022-09-17T05:28:32;2.85;;;2.42;;
42282;SDS011;28237;47.954;21.730;2022-09-17T05:30:57;5.53;;;1.97;;
42282;SDS011;28237;47.954;21.730;2022-09-17T05:33:23;3.08;;;2.35;;
42282;SDS011;28237;47.954;21.730;2022-09-17T05:35:49;3.90;;;2.30;;
42282;SDS011;28237;47.954;21.730;2022-09-17T05:38:14;3.67;;;2.87;;
42282;SDS011;28237;47.954;21.730;2022-09-17T05:40:39;3.97;;;2.70;;
42282;SDS011;28237;47.954;21.730;2022-09-17T05:43:05;5.75;;;2.58;;
42282;SDS011;28237;47.954;21.730;2022-09-17T05:45:34;3.08;;;2.78;;
42282;SDS011;28237;47.954;21.730;2022-09-17T05:48:00;5.22;;;2.75;;
42282;SDS011;28237;47.954;21.730;2022-09-17T05:50:26;5.85;;;2.78;;
42282;SDS011;28237;47.954;21.730;2022-09-17T05:52:52;3.13;;;2.72;;
42282;SDS011;28237;47.954;21.730;2022-09-17T05:55:18;9.70;;;3.55;;
42282;SDS011;28237;47.954;21.730;2022-09-17T05:57:44;6.38;;;3.03;;
42282;SDS011;28237;47.954;21.730;2022-09-17T06:00:09;7.15;;;4.15;;
42282;SDS011;28237;47.954;21.730;2022-09-17T06:02:35;4.00;;;3.53;;
42282;SDS011;28237;47.954;21.730;2022-09-17T06:05:01;5.67;;;4.10;;
42282;SDS011;28237;47.954;21.730;2022-09-17T06:07:28;5.05;;;3.72;;
42282;SDS011;28237;47.954;21.730;2022-09-17T06:09:53;4.10;;;3.75;;
42282;SDS011;28237;47.954;21.730;2022-09-17T06:12:18;4.93;;;4.40;;
42282;SDS011;28237;47.954;21.730;2022-09-17T06:14:44;6.00;;;4.40;;
42282;SDS011;28237;47.954;21.730;2022-09-17T06:17:09;4.25;;;3.83;;
42282;SDS011;28237;47.954;21.730;2022-09-17T06:19:34;14.77;;;8.57;;
42282;SDS011;28237;47.954;21.730;2022-09-17T06:21:59;7.40;;;5.30;;
42282;SDS011;28237;47.954;21.730;2022-09-17T06:24:25;5.82;;;4.57;;
42282;SDS011;28237;47.954;21.730;2022-09-17T06:26:51;6.93;;;4.28;;
42282;SDS011;28237;47.954;21.730;2022-09-17T06:29:17;7.37;;;5.30;;
42282;SDS011;28237;47.954;21.730;2022-09-17T06:31:42;9.07;;;4.60;;
42282;SDS011;28237;47.954;21.730;2022-09-17T06:34:08;8.85;;;5.95;;
42282;SDS011;28237;47.954;21.730;2022-09-17T06:36:34;7.10;;;5.45;;
42282;SDS011;28237;47.954;21.730;2022-09-17T06:38:59;8.63;;;5.30;;
42282;SDS011;28237;47.954;21.730;2022-09-17T06:41:24;8.27;;;5.27;;
42282;SDS011;28237;47.954;21.730;2022-09-17T06:43:51;6.03;;;5.38;;
42282;SDS011;28237;47.954;21.730;2022-09-17T06:46:16;6.55;;;5.68;;
42282;SDS011;28237;47.954;21.730;2022-09-17T06:48:41;6.83;;;6.10;;
42282;SDS011;28237;47.954;21.730;2022-09-17T06:51:07;10.48;;;6.47;;
42282;SDS011;28237;47.954;21.730;2022-09-17T06:53:34;7.28;;;6.53;;
42282;SDS011;28237;47.954;21.730;2022-09-17T06:56:01;10.45;;;7.30;;
42282;SDS011;28237;47.954;21.730;2022-09-17T06:58:27;12.98;;;7.18;;
42282;SDS011;28237;47.954;21.730;2022-09-17T07:00:53;10.20;;;7.45;;
42282;SDS011;28237;47.954;21.730;2022-09-17T07:03:21;10.32;;;7.32;;
42282;SDS011;28237;47.954;21.730;2022-09-17T07:05:47;12.63;;;8.00;;
42282;SDS011;28237;47.954;21.730;2022-09-17T07:08:12;7.93;;;6.20;;
42282;SDS011;28237;47.954;21.730;2022-09-17T07:10:39;9.17;;;8.13;;
42282;SDS011;28237;47.954;21.730;2022-09-17T07:13:04;10.43;;;9.13;;
42282;SDS011;28237;47.954;21.730;2022-09-17T07:15:29;10.70;;;7.90;;
42282;SDS011;28237;47.954;21.730;2022-09-17T07:17:54;8.77;;;7.28;;
42282;SDS011;28237;47.954;21.730;2022-09-17T07:20:20;8.93;;;8.02;;
42282;SDS011;28237;47.954;21.730;2022-09-17T07:22:53;9.63;;;8.43;;
42282;SDS011;28237;47.954;21.730;2022-09-17T07:25:18;8.38;;;6.50;;
42282;SDS011;28237;47.954;21.730;2022-09-17T07:27:44;11.45;;;9.27;;
42282;SDS011;28237;47.954;21.730;2022-09-17T07:30:09;15.52;;;9.00;;
42282;SDS011;28237;47.954;21.730;2022-09-17T07:32:35;11.02;;;9.05;;
42282;SDS011;28237;47.954;21.730;2022-09-17T07:35:00;12.13;;;8.77;;
42282;SDS011;28237;47.954;21.730;2022-09-17T07:37:25;11.97;;;8.90;;
42282;SDS011;28237;47.954;21.730;2022-09-17T07:39:50;13.03;;;8.77;;
42282;SDS011;28237;47.954;21.730;2022-09-17T07:42:15;10.57;;;8.07;;
42282;SDS011;28237;47.954;21.730;2022-09-17T07:44:41;10.53;;;8.73;;
42282;SDS011;28237;47.954;21.730;2022-09-17T07:47:06;10.77;;;8.00;;
42282;SDS011;28237;47.954;21.730;2022-09-17T07:49:31;11.80;;;8.85;;
42282;SDS011;28237;47.954;21.730;2022-09-17T07:51:57;10.85;;;8.25;;
42282;SDS011;28237;47.954;21.730;2022-09-17T07:54:23;10.63;;;7.55;;
42282;SDS011;28237;47.954;21.730;2022-09-17T07:56:49;10.82;;;8.35;;
42282;SDS011;28237;47.954;21.730;2022-09-17T07:59:14;12.67;;;8.70;;
42282;SDS011;28237;47.954;21.730;2022-09-17T08:01:39;11.03;;;8.07;;
42282;SDS011;28237;47.954;21.730;2022-09-17T08:04:04;8.87;;;7.43;;
42282;SDS011;28237;47.954;21.730;2022-09-17T08:06:30;12.30;;;8.75;;
42282;SDS011;28237;47.954;21.730;2022-09-17T08:08:55;14.47;;;8.87;;
42282;SDS011;28237;47.954;21.730;2022-09-17T08:11:22;10.85;;;8.40;;
42282;SDS011;28237;47.954;21.730;2022-09-17T08:13:49;8.93;;;8.02;;
42282;SDS011;28237;47.954;21.730;2022-09-17T08:16:14;9.38;;;7.05;;
42282;SDS011;28237;47.954;21.730;2022-09-17T08:18:40;10.55;;;8.63;;
42282;SDS011;28237;47.954;21.730;2022-09-17T08:21:07;9.68;;;8.38;;
42282;SDS011;28237;47.954;21.730;2022-09-17T08:23:34;12.38;;;7.80;;
42282;SDS011;28237;47.954;21.730;2022-09-17T08:25:59;15.63;;;8.30;;
42282;SDS011;28237;47.954;21.730;2022-09-17T08:28:26;11.00;;;9.10;;
42282;SDS011;28237;47.954;21.730;2022-09-17T08:30:52;16.83;;;8.55;;
42282;SDS011;28237;47.954;21.730;2022-09-17T08:33:17;9.30;;;7.90;;
42282;SDS011;28237;47.954;21.730;2022-09-17T08:35:49;13.97;;;8.57;;
42282;SDS011;28237;47.954;21.730;2022-09-17T08:38:14;8.40;;;7.22;;
42282;SDS011;28237;47.954;21.730;2022-09-17T08:40:41;8.90;;;7.90;;
42282;SDS011;28237;47.954;21.730;2022-09-17T08:43:11;11.70;;;8.55;;
42282;SDS011;28237;47.954;21.730;2022-09-17T08:45:38;10.55;;;8.40;;
42282;SDS011;28237;47.954;21.730;2022-09-17T08:48:04;9.60;;;8.40;;
42282;SDS011;28237;47.954;21.730;2022-09-17T08:50:33;12.93;;;8.80;;
42282;SDS011;28237;47.954;21.730;2022-09-17T08:53:12;10.75;;;8.68;;
42282;SDS011;28237;47.954;21.730;2022-09-17T08:55:44;8.82;;;7.63;;
42282;SDS011;28237;47.954;21.730;2022-09-17T09:05:53;10.05;;;9.00;;
42282;SDS011;28237;47.954;21.730;2022-09-17T09:10:52;8.75;;;7.93;;
42282;SDS011;28237;47.954;21.730;2022-09-17T09:13:20;9.23;;;8.23;;
42282;SDS011;28237;47.954;21.730;2022-09-17T09:15:52;10.75;;;9.05;;
42282;SDS011;28237;47.954;21.730;2022-09-17T09:23:20;11.18;;;8.50;;
42282;SDS011;28237;47.954;21.730;2022-09-17T09:25:58;12.18;;;8.48;;
42282;SDS011;28237;47.954;21.730;2022-09-17T09:28:33;19.73;;;10.68;;
42282;SDS011;28237;47.954;21.730;2022-09-17T09:33:32;13.17;;;9.10;;
42282;SDS011;28237;47.954;21.730;2022-09-17T09:35:59;21.88;;;9.88;;
42282;SDS011;28237;47.954;21.730;2022-09-17T09:38:32;11.10;;;9.15;;
42282;SDS011;28237;47.954;21.730;2022-09-17T09:41:08;9.70;;;7.70;;
42282;SDS011;28237;47.954;21.730;2022-09-17T09:46:19;13.48;;;8.75;;
42282;SDS011;28237;47.954;21.730;2022-09-17T09:59:10;7.90;;;7.13;;
42282;SDS011;28237;47.954;21.730;2022-09-17T10:01:37;9.68;;;7.60;;
42282;SDS011;28237;47.954;21.730;2022-09-17T10:04:08;9.57;;;8.65;;
42282;SDS011;28237;47.954;21.730;2022-09-17T10:06:38;13.68;;;8.38;;
42282;SDS011;28237;47.954;21.730;2022-09-17T10:11:30;13.40;;;8.87;;
42282;SDS011;28237;47.954;21.730;2022-09-17T10:16:42;13.02;;;8.70;;
42282;SDS011;28237;47.954;21.730;2022-09-17T10:21:34;13.43;;;8.20;;
42282;SDS011;28237;47.954;21.730;2022-09-17T10:24:03;10.68;;;9.13;;
42282;SDS011;28237;47.954;21.730;2022-09-17T10:26:32;10.20;;;8.07;;
42282;SDS011;28237;47.954;21.730;2022-09-17T10:28:59;8.60;;;7.80;;
42282;SDS011;28237;47.954;21.730;2022-09-17T10:31:26;12.35;;;9.38;;
42282;SDS011;28237;47.954;21.730;2022-09-17T10:36:33;10.57;;;8.77;;
42282;SDS011;28237;47.954;21.730;2022-09-17T10:39:00;13.95;;;9.88;;
42282;SDS011;28237;47.954;21.730;2022-09-17T10:41:52;10.48;;;7.25;;
42282;SDS011;28237;47.954;21.730;2022-09-17T10:44:19;12.25;;;8.48;;
42282;SDS011;28237;47.954;21.730;2022-09-17T10:46:45;8.38;;;6.78;;
42282;SDS011;28237;47.954;21.730;2022-09-17T10:49:11;9.23;;;7.00;;
42282;SDS011;28237;47.954;21.730;2022-09-17T10:51:42;8.32;;;6.78;;
42282;SDS011;28237;47.954;21.730;2022-09-17T10:54:14;11.07;;;7.43;;
42282;SDS011;28237;47.954;21.730;2022-09-17T10:56:45;10.52;;;8.40;;
42282;SDS011;28237;47.954;21.730;2022-09-17T11:04:28;10.90;;;8.63;;
42282;SDS011;28237;47.954;21.730;2022-09-17T11:14:38;6.27;;;4.40;;
42282;SDS011;28237;47.954;21.730;2022-09-17T11:19:41;8.87;;;3.60;;
42282;SDS011;28237;47.954;21.730;2022-09-17T11:32:31;5.18;;;4.68;;
42282;SDS011;28237;47.954;21.730;2022-09-17T11:35:16;8.98;;;5.18;;
42282;SDS011;28237;47.954;21.730;2022-09-17T11:42:55;7.93;;;5.28;;
42282;SDS011;28237;47.954;21.730;2022-09-17T11:45:40;14.43;;;10.05;;
42282;SDS011;28237;47.954;21.730;2022-09-17T11:48:12;7.85;;;4.60;;
42282;SDS011;28237;47.954;21.730;2022-09-17T11:55:32;7.33;;;5.07;;
42282;SDS011;28237;47.954;21.730;2022-09-17T11:57:59;9.07;;;4.80;;
42282;SDS011;28237;47.954;21.730;2022-09-17T12:00:27;6.43;;;4.28;;
42282;SDS011;28237;47.954;21.730;2022-09-17T12:05:20;6.32;;;5.68;;
42282;SDS011;28237;47.954;21.730;2022-09-17T12:12:51;6.80;;;6.05;;
42282;SDS011;28237;47.954;21.730;2022-09-17T12:15:21;8.73;;;6.38;;
42282;SDS011;28237;47.954;21.730;2022-09-17T12:18:02;8.77;;;6.43;;
42282;SDS011;28237;47.954;21.730;2022-09-17T12:20:34;8.20;;;6.13;;
42282;SDS011;28237;47.954;21.730;2022-09-17T12:23:01;8.27;;;5.68;;
42282;SDS011;28237;47.954;21.730;2022-09-17T12:25:29;6.78;;;6.07;;
42282;SDS011;28237;47.954;21.730;2022-09-17T12:27:59;7.63;;;6.03;;
42282;SDS011;28237;47.954;21.730;2022-09-17T12:30:30;7.18;;;5.75;;
42282;SDS011;28237;47.954;21.730;2022-09-17T12:33:13;6.57;;;5.38;;
42282;SDS011;28237;47.954;21.730;2022-09-17T12:40:59;9.07;;;6.38;;
42282;SDS011;28237;47.954;21.730;2022-09-17T12:44:11;5.90;;;5.32;;
42282;SDS011;28237;47.954;21.730;2022-09-17T12:59:04;8.73;;;6.97;;
42282;SDS011;28237;47.954;21.730;2022-09-17T13:17:30;6.90;;;6.30;;
42282;SDS011;28237;47.954;21.730;2022-09-17T13:20:15;7.13;;;5.63;;
42282;SDS011;28237;47.954;21.730;2022-09-17T13:22:43;7.18;;;6.47;;
42282;SDS011;28237;47.954;21.730;2022-09-17T13:25:09;7.82;;;6.55;;
42282;SDS011;28237;47.954;21.730;2022-09-17T13:27:36;7.22;;;6.53;;
42282;SDS011;28237;47.954;21.730;2022-09-17T13:30:05;7.75;;;6.65;;
42282;SDS011;28237;47.954;21.730;2022-09-17T13:37:31;7.93;;;6.67;;
42282;SDS011;28237;47.954;21.730;2022-09-17T13:39:57;11.23;;;7.72;;
42282;SDS011;28237;47.954;21.730;2022-09-17T13:42:30;9.48;;;7.70;;
42282;SDS011;28237;47.954;21.730;2022-09-17T13:47:30;8.77;;;7.78;;
42282;SDS011;28237;47.954;21.730;2022-09-17T13:50:02;12.32;;;7.72;;
42282;SDS011;28237;47.954;21.730;2022-09-17T13:52:31;9.50;;;7.55;;
42282;SDS011;28237;47.954;21.730;2022-09-17T13:54:57;15.80;;;7.50;;
42282;SDS011;28237;47.954;21.730;2022-09-17T13:57:23;9.07;;;6.82;;
42282;SDS011;28237;47.954;21.730;2022-09-17T13:59:53;7.18;;;6.43;;
42282;SDS011;28237;47.954;21.730;2022-09-17T14:02:26;10.15;;;7.38;;
42282;SDS011;28237;47.954;21.730;2022-09-17T14:05:15;7.85;;;7.15;;
42282;SDS011;28237;47.954;21.730;2022-09-17T14:07:45;7.90;;;6.85;;
42282;SDS011;28237;47.954;21.730;2022-09-17T14:17:53;7.07;;;6.35;;
42282;SDS011;28237;47.954;21.730;2022-09-17T14:20:18;9.05;;;6.72;;
42282;SDS011;28237;47.954;21.730;2022-09-17T14:22:53;8.65;;;5.50;;
42282;SDS011;28237;47.954;21.730;2022-09-17T14:25:18;6.45;;;5.70;;
42282;SDS011;28237;47.954;21.730;2022-09-17T14:27:56;6.65;;;6.05;;
42282;SDS011;28237;47.954;21.730;2022-09-17T14:30:28;7.05;;;6.13;;
42282;SDS011;28237;47.954;21.730;2022-09-17T14:33:01;6.45;;;5.82;;
42282;SDS011;28237;47.954;21.730;2022-09-17T14:37:58;9.73;;;5.28;;
42282;SDS011;28237;47.954;21.730;2022-09-17T14:40:25;6.43;;;5.78;;
